Portada
METAR-TAF:

METAR-TAF

Aeroports :

Plataforma petroliera

Ekofisk, Noruega

latitud: 56-33N, longitud: 003-15E, altitud: 3 m

Observació

L'informe es va fer fa 24 minuts, a les 09:50 UTC
Vent 25 kt del Sud/Sud-Oest
Temperatura 15°C
Humitat 77%
Pressió 1017 hPa
Visibilitat 10 km o més
Escasses núvols a una alçada de 1500 ft, Cumulus congestus.
Cel ennuvolat a una alçada de 8000 ft

METAR: ENLE 220950Z 21025KT 9999 FEW015TCU BKN080 15/11 Q1017 W16/S4

Hora: 12:14 (10:14 UTC)

Pronòstic

L'informe es va fer fa 2 hores i 14 minuts, a les 08:00 UTC
Pronòstic vàlid del 22 a les 09 UTC al 22 a les 18 UTC
Vent 28 kt del Sud-Oest
Visibilitat 10 km o més
Núvols disperses a una alçada de 800 ft
Cel ennuvolat a una alçada de 4000 ft
pluja
Probabilitat 40% :
Temporalment
l' 22 a les 09 UTC al 22 a les 12 UTC
Cel ennuvolat a una alçada de 800 ft

TAF: ENLE 220800Z 2209/2218 23028KT 9999 -RA SCT008 BKN040 PROB40 TEMPO 2209/2212 BKN008

Observacions i pronòstics meteorològics de més de 4000 aeroports (METAR i TAF).

Les estacions disponibles són els punts grocs i vermells al mapa.

Posi el ratolí al punt desitjat per veure el nom de l'estació.

Feu clic per veure les observacions i els pronòstics meteorològics.

Per canviar el mapa: feu clic els botons verds amb una creu de color negre per apropar; al botó verd amb un guió per allunyar la imatge; o en les fletxes verdes per a mapes adjacents.


METAR-TAF: